createdAt,value
2019-05-28T00:01:31.109Z,18.39
2019-05-28T00:03:57.875Z,18.55
2019-05-28T00:06:24.667Z,18.38
2019-05-28T00:08:51.458Z,18.48
2019-05-28T00:11:18.308Z,18.56
2019-05-28T00:13:44.994Z,18.51
2019-05-28T00:16:11.698Z,18.60
2019-05-28T00:18:38.435Z,18.58
2019-05-28T00:21:05.217Z,18.67
2019-05-28T00:23:31.926Z,18.64
2019-05-28T00:25:58.787Z,18.67
2019-05-28T00:28:26.099Z,18.63
2019-05-28T00:30:52.875Z,18.60
2019-05-28T00:33:19.770Z,18.59
2019-05-28T00:35:46.567Z,18.49
2019-05-28T00:38:13.264Z,18.33
2019-05-28T00:40:39.999Z,18.43
2019-05-28T00:43:06.672Z,18.24
2019-05-28T00:45:33.507Z,18.19
2019-05-28T00:48:00.446Z,18.03
2019-05-28T00:50:27.224Z,17.87
2019-05-28T00:52:54.061Z,17.94
2019-05-28T00:55:20.894Z,18.00
2019-05-28T00:57:48.781Z,17.97
2019-05-28T01:00:36.184Z,17.74
2019-05-28T01:02:48.933Z,17.74
2019-05-28T01:05:15.936Z,17.90
2019-05-28T01:07:42.671Z,18.13
2019-05-28T01:10:09.821Z,18.23
2019-05-28T01:12:36.503Z,18.20
2019-05-28T01:15:06.938Z,18.15
2019-05-28T01:17:33.669Z,18.14
2019-05-28T01:20:00.414Z,18.10
2019-05-28T01:22:27.181Z,18.11
2019-05-28T01:24:53.933Z,18.16
2019-05-28T01:27:20.610Z,18.09
2019-05-28T01:29:47.316Z,18.12
2019-05-28T01:32:14.183Z,18.13
2019-05-28T01:34:40.872Z,17.84
2019-05-28T01:37:07.756Z,17.94
2019-05-28T01:39:34.490Z,18.00
2019-05-28T01:42:01.196Z,18.01
2019-05-28T01:44:27.991Z,17.83
2019-05-28T01:46:54.726Z,17.56
2019-05-28T01:49:21.421Z,17.55
2019-05-28T01:51:48.131Z,17.34
2019-05-28T01:54:14.883Z,17.31
2019-05-28T01:56:41.655Z,17.13
2019-05-28T01:59:08.367Z,17.08
2019-05-28T02:01:35.237Z,17.13
2019-05-28T02:04:01.921Z,17.35
2019-05-28T02:06:28.603Z,17.15
2019-05-28T02:08:55.407Z,17.10
2019-05-28T02:11:22.115Z,17.17
2019-05-28T02:13:48.919Z,17.16
2019-05-28T02:16:15.717Z,17.08
2019-05-28T02:18:43.549Z,16.93
2019-05-28T02:21:10.233Z,17.06
2019-05-28T02:23:37.083Z,17.02
2019-05-28T02:26:04.065Z,16.91
2019-05-28T02:28:30.769Z,16.72
2019-05-28T02:30:57.566Z,16.47
2019-05-28T02:33:24.230Z,16.52
2019-05-28T02:35:50.939Z,16.43
2019-05-28T02:38:17.723Z,16.27
2019-05-28T02:40:44.499Z,16.56
2019-05-28T02:43:11.273Z,16.56
2019-05-28T02:45:38.104Z,16.66
2019-05-28T02:48:04.898Z,16.77
2019-05-28T02:50:57.397Z,16.83
2019-05-28T02:53:24.121Z,16.75
2019-05-28T02:55:51.634Z,16.75
2019-05-28T02:58:18.607Z,16.82
2019-05-28T03:00:47.233Z,16.92
2019-05-28T03:03:14.639Z,16.94
2019-05-28T03:05:42.897Z,17.00
2019-05-28T03:08:10.882Z,17.11
2019-05-28T03:11:01.289Z,17.04
2019-05-28T03:13:07.186Z,17.21
2019-05-28T03:15:37.580Z,17.30
2019-05-28T03:18:07.959Z,17.21
2019-05-28T03:20:36.441Z,17.27
2019-05-28T03:23:03.466Z,17.21
2019-05-28T03:25:32.789Z,17.26
2019-05-28T03:27:59.578Z,17.06
2019-05-28T03:30:26.374Z,16.87
2019-05-28T03:32:53.327Z,17.01
2019-05-28T03:35:21.266Z,16.97
2019-05-28T03:37:49.000Z,16.87
2019-05-28T03:40:19.393Z,16.87
2019-05-28T03:42:46.270Z,17.02
2019-05-28T03:45:13.216Z,17.27
2019-05-28T03:47:39.982Z,17.28
2019-05-28T03:50:07.333Z,17.40
2019-05-28T03:52:34.054Z,17.51
2019-05-28T03:55:00.886Z,17.75
2019-05-28T03:57:27.690Z,18.00
2019-05-28T03:59:57.677Z,18.01
2019-05-28T04:02:24.162Z,18.05
2019-05-28T04:04:51.194Z,18.11
2019-05-28T04:07:17.990Z,18.12
2019-05-28T04:09:44.780Z,18.15
2019-05-28T04:12:11.554Z,18.15
2019-05-28T04:14:38.324Z,18.27
2019-05-28T04:17:05.247Z,18.27
2019-05-28T04:19:31.931Z,18.28
2019-05-28T04:21:58.717Z,18.32
2019-05-28T04:24:25.422Z,18.35
2019-05-28T04:26:52.218Z,18.46
2019-05-28T04:29:18.874Z,18.50
2019-05-28T04:31:45.671Z,18.44
2019-05-28T04:34:12.325Z,18.47
2019-05-28T04:36:39.047Z,18.61
2019-05-28T04:39:07.191Z,18.59
2019-05-28T04:41:33.900Z,18.73
2019-05-28T04:44:00.602Z,18.85
2019-05-28T04:46:27.349Z,19.00
2019-05-28T04:48:54.288Z,19.03
2019-05-28T04:51:21.013Z,19.11
2019-05-28T04:53:47.695Z,19.24
2019-05-28T04:56:14.687Z,19.43
2019-05-28T04:58:41.438Z,19.52
2019-05-28T05:01:09.166Z,19.61
2019-05-28T05:03:35.866Z,19.59
2019-05-28T05:06:02.829Z,19.60
2019-05-28T05:08:29.649Z,19.57
2019-05-28T05:10:56.310Z,19.65
2019-05-28T05:13:23.087Z,19.99
2019-05-28T05:15:49.768Z,20.05
2019-05-28T05:18:16.522Z,20.15
2019-05-28T05:20:43.466Z,20.29
2019-05-28T05:23:10.157Z,20.30
2019-05-28T05:25:36.938Z,20.62
2019-05-28T05:28:03.765Z,20.55
2019-05-28T05:30:30.458Z,20.81
2019-05-28T05:32:57.226Z,21.46
2019-05-28T05:35:24.103Z,21.51
2019-05-28T05:37:50.962Z,21.67
2019-05-28T05:40:18.482Z,21.81
2019-05-28T05:42:45.447Z,22.04
2019-05-28T05:45:12.447Z,22.17
2019-05-28T05:47:39.218Z,22.10
2019-05-28T05:50:06.444Z,21.64
2019-05-28T05:52:33.365Z,21.81
2019-05-28T05:55:00.183Z,21.39
2019-05-28T05:57:27.247Z,21.38
2019-05-28T05:59:54.019Z,21.43
2019-05-28T06:02:20.721Z,21.30
2019-05-28T06:04:47.910Z,21.38
2019-05-28T06:07:14.693Z,21.43
2019-05-28T06:09:41.492Z,21.44
2019-05-28T06:12:08.257Z,21.38
2019-05-28T06:14:37.876Z,21.21
2019-05-28T06:17:03.814Z,21.09
2019-05-28T06:19:30.887Z,21.17
2019-05-28T06:21:57.568Z,21.26
2019-05-28T06:24:24.434Z,21.37
2019-05-28T06:26:51.172Z,21.22
2019-05-28T06:29:17.855Z,21.23
2019-05-28T06:31:44.613Z,21.21
2019-05-28T06:34:11.488Z,21.16
2019-05-28T06:36:38.284Z,21.47
2019-05-28T06:39:06.712Z,21.47
2019-05-28T06:41:33.474Z,21.58
2019-05-28T06:44:00.232Z,21.79
2019-05-28T06:46:26.952Z,21.63
2019-05-28T06:48:53.720Z,21.69
2019-05-28T06:51:20.463Z,21.75
2019-05-28T06:53:47.314Z,21.74
2019-05-28T06:56:14.238Z,21.82
2019-05-28T06:58:40.968Z,21.67
2019-05-28T07:01:07.948Z,21.84
2019-05-28T07:03:34.888Z,21.94
2019-05-28T07:06:07.253Z,22.15
2019-05-28T07:08:30.222Z,21.91
2019-05-28T07:10:58.554Z,22.06
2019-05-28T07:13:25.489Z,22.11
2019-05-28T07:15:52.199Z,22.03
2019-05-28T07:18:18.930Z,22.00
2019-05-28T07:20:45.638Z,22.22
2019-05-28T07:23:12.334Z,22.19
2019-05-28T07:25:39.161Z,22.42
2019-05-28T07:28:11.131Z,22.32
2019-05-28T07:30:34.464Z,22.20
2019-05-28T07:33:01.321Z,22.34
2019-05-28T07:35:44.280Z,22.47
2019-05-28T07:37:56.612Z,22.70
2019-05-28T07:40:31.554Z,22.48
2019-05-28T07:42:53.365Z,22.21
2019-05-28T07:45:20.058Z,22.28
2019-05-28T07:47:46.872Z,22.42
2019-05-28T07:50:13.798Z,22.39
2019-05-28T07:52:41.469Z,22.37
2019-05-28T07:55:08.245Z,22.23
2019-05-28T07:57:35.279Z,22.15
2019-05-28T08:00:05.278Z,22.02
2019-05-28T08:02:31.000Z,21.99
2019-05-28T08:04:57.854Z,22.00
2019-05-28T08:07:24.527Z,22.03
2019-05-28T08:09:51.433Z,22.25
2019-05-28T08:12:18.215Z,22.17
2019-05-28T08:14:44.896Z,22.29
2019-05-28T08:17:11.836Z,22.48
2019-05-28T08:19:38.597Z,22.72
2019-05-28T08:22:05.346Z,22.80
2019-05-28T08:24:33.449Z,22.67
2019-05-28T08:27:00.339Z,22.48
2019-05-28T08:29:27.099Z,22.67
2019-05-28T08:31:53.972Z,22.71
2019-05-28T08:34:20.694Z,22.85
2019-05-28T08:37:04.520Z,22.76
2019-05-28T08:39:16.228Z,22.84
2019-05-28T08:41:43.006Z,22.69
2019-05-28T08:44:09.772Z,22.64
2019-05-28T08:46:37.034Z,22.50
2019-05-28T08:49:03.825Z,22.52
2019-05-28T08:51:30.539Z,22.32
2019-05-28T08:53:57.507Z,21.98
2019-05-28T08:56:24.256Z,22.13
2019-05-28T08:58:51.331Z,22.21
2019-05-28T09:01:18.182Z,21.98
2019-05-28T09:03:45.033Z,22.04
2019-05-28T09:06:11.816Z,22.14
2019-05-28T09:08:40.239Z,22.06
2019-05-28T09:11:07.891Z,22.02
2019-05-28T09:13:35.147Z,21.92
2019-05-28T09:16:01.900Z,21.91
2019-05-28T09:18:28.582Z,22.05
2019-05-28T09:20:55.372Z,21.95
2019-05-28T09:23:22.236Z,22.08
2019-05-28T09:25:49.241Z,21.92
2019-05-28T09:28:29.030Z,22.04
2019-05-28T09:30:45.013Z,22.14
2019-05-28T09:33:11.727Z,22.26
2019-05-28T09:35:44.781Z,22.28
2019-05-28T09:38:07.691Z,22.32
2019-05-28T09:40:49.409Z,22.40
2019-05-28T09:43:03.124Z,22.58
2019-05-28T09:45:29.883Z,22.60
2019-05-28T09:47:56.692Z,22.83
2019-05-28T09:50:30.749Z,22.67
2019-05-28T09:52:55.267Z,22.82
2019-05-28T09:55:22.174Z,22.88
2019-05-28T09:57:48.971Z,22.86
2019-05-28T10:00:20.641Z,22.88
2019-05-28T10:02:47.450Z,23.03
2019-05-28T10:05:14.548Z,23.09
2019-05-28T10:07:42.236Z,23.28
2019-05-28T10:10:09.111Z,23.49
2019-05-28T10:12:35.867Z,23.65
2019-05-28T10:15:05.737Z,23.53
2019-05-28T10:17:32.459Z,23.51
2019-05-28T10:19:59.141Z,23.62
2019-05-28T10:22:26.222Z,23.79
2019-05-28T10:24:53.033Z,23.88
2019-05-28T10:27:19.753Z,23.97
2019-05-28T10:29:46.543Z,24.06
2019-05-28T10:32:13.255Z,24.12
2019-05-28T10:34:39.987Z,24.04
2019-05-28T10:37:06.854Z,24.08
2019-05-28T10:39:33.666Z,24.21
2019-05-28T10:42:00.780Z,24.44
2019-05-28T10:44:27.702Z,24.50
2019-05-28T10:46:54.388Z,24.62
2019-05-28T10:49:22.110Z,24.58
2019-05-28T10:51:48.850Z,24.55
2019-05-28T10:54:15.601Z,24.57
2019-05-28T10:56:42.316Z,24.74
2019-05-28T10:59:09.146Z,24.67
2019-05-28T11:01:35.913Z,24.72
2019-05-28T11:04:03.472Z,24.72
2019-05-28T11:06:30.340Z,24.80
2019-05-28T11:08:57.113Z,24.85
2019-05-28T11:11:24.071Z,24.82
2019-05-28T11:13:53.563Z,24.83
2019-05-28T11:16:19.520Z,24.86
2019-05-28T11:18:46.398Z,24.90
2019-05-28T11:21:13.075Z,24.94
2019-05-28T11:23:39.861Z,24.99
2019-05-28T11:26:06.551Z,25.24
2019-05-28T11:28:33.245Z,25.30
2019-05-28T11:31:00.093Z,25.33
2019-05-28T11:33:26.785Z,25.32
2019-05-28T11:35:53.470Z,25.36
2019-05-28T11:38:20.217Z,25.37
2019-05-28T11:40:48.014Z,25.39
2019-05-28T11:43:14.701Z,25.32
2019-05-28T11:45:41.529Z,25.43
2019-05-28T11:48:08.351Z,25.58
2019-05-28T11:50:35.145Z,25.64
2019-05-28T11:53:01.891Z,25.67
2019-05-28T11:55:28.592Z,25.60
2019-05-28T11:57:55.264Z,25.60
2019-05-28T12:00:24.587Z,25.90
2019-05-28T12:02:51.479Z,26.09
2019-05-28T12:05:19.028Z,26.13
2019-05-28T12:07:45.747Z,26.07
2019-05-28T12:10:13.157Z,26.08
2019-05-28T12:12:39.846Z,26.06
2019-05-28T12:15:14.579Z,26.10
2019-05-28T12:17:43.053Z,25.95
2019-05-28T12:20:12.741Z,25.66
2019-05-28T12:22:40.221Z,25.69
2019-05-28T12:25:08.699Z,25.70
2019-05-28T12:27:35.424Z,25.51
2019-05-28T12:30:04.089Z,25.76
2019-05-28T12:32:31.062Z,25.71
2019-05-28T12:34:57.732Z,25.93
2019-05-28T12:37:24.425Z,26.16
2019-05-28T12:39:51.641Z,26.37
2019-05-28T12:42:18.528Z,26.32
2019-05-28T12:44:45.496Z,26.22
2019-05-28T12:47:14.763Z,26.06
2019-05-28T12:49:40.852Z,26.31
2019-05-28T12:52:07.688Z,26.22
2019-05-28T12:54:34.530Z,26.28
2019-05-28T12:57:01.217Z,26.15
2019-05-28T12:59:28.137Z,26.26
2019-05-28T13:01:54.986Z,26.43
2019-05-28T13:04:21.707Z,26.42
2019-05-28T13:06:48.473Z,26.47
2019-05-28T13:09:15.400Z,26.51
2019-05-28T13:11:42.169Z,26.46
2019-05-28T13:14:08.853Z,26.59
2019-05-28T13:16:37.521Z,26.64
2019-05-28T13:19:04.208Z,26.65
2019-05-28T13:21:31.214Z,26.73
2019-05-28T13:23:58.078Z,26.53
2019-05-28T13:26:24.848Z,26.53
2019-05-28T13:28:51.541Z,26.45
2019-05-28T13:31:18.652Z,26.74
2019-05-28T13:33:45.368Z,26.74
2019-05-28T13:36:12.058Z,26.79
2019-05-28T13:38:42.556Z,26.66
2019-05-28T13:41:08.634Z,26.81
2019-05-28T13:43:35.323Z,26.86
2019-05-28T13:46:02.090Z,26.90
2019-05-28T13:48:28.948Z,26.69
2019-05-28T13:50:55.663Z,26.49
2019-05-28T13:53:22.670Z,26.52
2019-05-28T13:55:49.443Z,26.46
2019-05-28T13:58:16.158Z,26.50
2019-05-28T14:00:42.910Z,26.54
2019-05-28T14:03:10.214Z,26.65
2019-05-28T14:05:37.834Z,26.47
2019-05-28T14:08:04.632Z,26.33
2019-05-28T14:10:31.430Z,26.57
2019-05-28T14:12:58.181Z,26.32
2019-05-28T14:15:24.868Z,26.33
2019-05-28T14:17:51.538Z,26.45
2019-05-28T14:20:18.929Z,26.49
2019-05-28T14:22:45.793Z,26.37
2019-05-28T14:25:13.739Z,26.31
2019-05-28T14:27:40.627Z,26.44
2019-05-28T14:30:12.315Z,26.53
2019-05-28T14:32:39.000Z,26.59
2019-05-28T14:35:06.849Z,26.64
2019-05-28T14:37:33.624Z,26.53
2019-05-28T14:40:00.303Z,26.61
2019-05-28T14:42:26.975Z,26.48
2019-05-28T14:44:53.663Z,26.57
2019-05-28T14:47:20.409Z,26.58
2019-05-28T14:49:47.098Z,26.54
2019-05-28T14:52:13.859Z,26.53
2019-05-28T14:54:40.644Z,26.39
2019-05-28T14:57:07.362Z,26.29
2019-05-28T14:59:34.033Z,26.13
2019-05-28T15:02:00.809Z,26.18
2019-05-28T15:04:27.591Z,26.22
2019-05-28T15:06:57.213Z,26.18
2019-05-28T15:09:22.925Z,26.24
2019-05-28T15:11:49.610Z,26.24
2019-05-28T15:14:16.301Z,26.46
2019-05-28T15:16:43.091Z,26.52
2019-05-28T15:19:09.717Z,26.25
2019-05-28T15:21:36.406Z,26.20
2019-05-28T15:24:03.182Z,26.32
2019-05-28T15:26:29.949Z,26.31
2019-05-28T15:28:56.622Z,26.10
2019-05-28T15:31:23.298Z,25.79
2019-05-28T15:33:49.964Z,25.79
2019-05-28T15:36:16.753Z,25.48
2019-05-28T15:38:43.395Z,25.27
2019-05-28T15:41:10.151Z,25.06
2019-05-28T15:43:36.898Z,24.83
2019-05-28T15:46:03.743Z,24.96
2019-05-28T15:48:30.423Z,25.03
2019-05-28T15:50:57.129Z,24.93
2019-05-28T15:53:23.891Z,24.88
2019-05-28T15:55:50.652Z,24.90
2019-05-28T15:58:17.316Z,24.92
2019-05-28T16:00:44.095Z,24.97
2019-05-28T16:03:10.803Z,24.77
2019-05-28T16:05:37.885Z,24.64
2019-05-28T16:08:04.651Z,24.75
2019-05-28T16:10:31.383Z,24.43
2019-05-28T16:12:58.174Z,24.49
2019-05-28T16:15:25.042Z,24.30
2019-05-28T16:17:51.707Z,24.27
2019-05-28T16:20:18.768Z,24.37
2019-05-28T16:22:45.452Z,24.15
2019-05-28T16:25:13.626Z,23.95
2019-05-28T16:27:40.391Z,23.99
2019-05-28T16:30:09.542Z,23.58
2019-05-28T16:32:36.414Z,23.62
2019-05-28T16:35:06.072Z,23.56
2019-05-28T16:37:33.736Z,23.48
2019-05-28T16:40:14.019Z,23.35
2019-05-28T16:42:29.174Z,23.33
2019-05-28T16:44:56.442Z,23.20
2019-05-28T16:47:23.254Z,23.20
2019-05-28T16:49:53.057Z,23.17
2019-05-28T16:52:19.728Z,23.20
2019-05-28T16:54:46.475Z,23.13
2019-05-28T16:57:13.221Z,22.92
2019-05-28T16:59:39.938Z,22.90
2019-05-28T17:02:06.599Z,22.78
2019-05-28T17:04:33.340Z,22.84
2019-05-28T17:07:00.037Z,22.73
2019-05-28T17:09:26.747Z,22.80
2019-05-28T17:11:53.457Z,22.77
2019-05-28T17:14:20.289Z,22.73
2019-05-28T17:16:46.942Z,22.62
2019-05-28T17:19:13.731Z,22.36
2019-05-28T17:21:40.555Z,22.08
2019-05-28T17:24:07.373Z,21.85
2019-05-28T17:26:34.235Z,21.69
2019-05-28T17:29:00.997Z,21.70
2019-05-28T17:31:27.767Z,21.61
2019-05-28T17:33:54.463Z,21.44
2019-05-28T17:36:22.329Z,21.48
2019-05-28T17:38:49.146Z,21.21
2019-05-28T17:41:15.835Z,21.18
2019-05-28T17:43:42.634Z,21.09
2019-05-28T17:46:09.273Z,20.97
2019-05-28T17:48:36.165Z,20.91
2019-05-28T17:51:02.832Z,20.66
2019-05-28T17:53:29.579Z,20.51
2019-05-28T17:55:56.320Z,20.34
2019-05-28T17:58:23.067Z,20.31
2019-05-28T18:00:49.820Z,20.22
2019-05-28T18:03:16.522Z,20.04
2019-05-28T18:05:43.223Z,19.89
2019-05-28T18:08:10.022Z,19.82
2019-05-28T18:10:36.729Z,19.83
2019-05-28T18:13:03.422Z,19.64
2019-05-28T18:15:31.488Z,19.71
2019-05-28T18:17:58.170Z,19.69
2019-05-28T18:20:26.193Z,19.53
2019-05-28T18:22:52.986Z,19.45
2019-05-28T18:25:20.646Z,19.28
2019-05-28T18:27:47.868Z,19.06
2019-05-28T18:30:15.272Z,19.00
2019-05-28T18:32:41.944Z,18.70
2019-05-28T18:35:09.084Z,18.62
2019-05-28T18:37:36.062Z,18.56
2019-05-28T18:40:05.486Z,18.64
2019-05-28T18:42:32.192Z,18.47
2019-05-28T18:44:58.951Z,18.37
2019-05-28T18:47:25.750Z,18.29
2019-05-28T18:49:52.622Z,18.40
2019-05-28T18:52:19.423Z,18.48
2019-05-28T18:54:46.081Z,18.51
2019-05-28T18:57:12.819Z,18.70
2019-05-28T18:59:39.800Z,18.91
2019-05-28T19:02:06.714Z,19.29
2019-05-28T19:04:33.558Z,19.25
2019-05-28T19:07:00.242Z,19.30
2019-05-28T19:09:26.940Z,19.34
2019-05-28T19:11:53.723Z,19.36
2019-05-28T19:14:20.525Z,19.25
2019-05-28T19:16:47.488Z,19.20
2019-05-28T19:19:15.335Z,19.02
2019-05-28T19:21:42.032Z,19.07
2019-05-28T19:24:08.934Z,19.01
2019-05-28T19:26:35.616Z,19.02
2019-05-28T19:29:02.580Z,18.91
2019-05-28T19:31:29.417Z,18.92
2019-05-28T19:33:56.783Z,18.95
2019-05-28T19:36:24.083Z,18.88
2019-05-28T19:38:51.484Z,18.67
2019-05-28T19:41:18.471Z,18.74
2019-05-28T19:43:45.291Z,18.68
2019-05-28T19:46:11.988Z,18.70
2019-05-28T19:48:38.683Z,18.55
2019-05-28T19:51:05.369Z,18.36
2019-05-28T19:53:32.208Z,18.35
2019-05-28T19:55:58.934Z,18.31
2019-05-28T19:58:25.940Z,18.02
2019-05-28T20:00:52.694Z,18.07
2019-05-28T20:03:19.405Z,18.05
2019-05-28T20:05:46.170Z,18.03
2019-05-28T20:08:12.938Z,18.08
2019-05-28T20:10:40.445Z,17.94
2019-05-28T20:13:07.501Z,17.85
2019-05-28T20:15:34.175Z,17.67
2019-05-28T20:18:00.868Z,17.68
2019-05-28T20:20:27.610Z,17.68
2019-05-28T20:22:54.322Z,17.45
2019-05-28T20:25:21.388Z,17.49
2019-05-28T20:27:48.213Z,17.27
2019-05-28T20:30:16.009Z,17.12
2019-05-28T20:32:42.795Z,17.27
2019-05-28T20:35:09.792Z,16.95
2019-05-28T20:37:36.690Z,16.99
2019-05-28T20:40:06.091Z,17.00
2019-05-28T20:42:35.803Z,16.79
2019-05-28T20:45:06.636Z,16.75
2019-05-28T20:47:33.367Z,16.47
2019-05-28T20:50:00.757Z,16.53
2019-05-28T20:52:27.645Z,16.47
2019-05-28T20:54:55.111Z,16.53
2019-05-28T20:57:21.993Z,16.52
2019-05-28T20:59:49.519Z,16.61
2019-05-28T21:02:19.145Z,16.62
2019-05-28T21:04:45.265Z,16.75
2019-05-28T21:07:12.014Z,16.63
2019-05-28T21:09:38.747Z,16.79
2019-05-28T21:12:05.551Z,16.97
2019-05-28T21:14:32.250Z,16.79
2019-05-28T21:16:59.239Z,16.93
2019-05-28T21:19:26.112Z,17.02
2019-05-28T21:21:53.710Z,17.03
2019-05-28T21:24:20.589Z,17.21
2019-05-28T21:26:47.344Z,17.21
2019-05-28T21:29:14.061Z,17.07
2019-05-28T21:31:40.770Z,17.17
2019-05-28T21:34:07.569Z,16.87
2019-05-28T21:36:34.469Z,16.66
2019-05-28T21:39:03.893Z,16.69
2019-05-28T21:41:30.967Z,16.73
2019-05-28T21:43:58.011Z,16.58
2019-05-28T21:46:24.880Z,16.40
2019-05-28T21:48:52.332Z,16.41
2019-05-28T21:51:19.159Z,16.06
2019-05-28T21:53:45.868Z,16.04
2019-05-28T21:56:13.850Z,16.04
2019-05-28T21:58:40.531Z,15.98
2019-05-28T22:01:16.985Z,15.87
2019-05-28T22:03:43.665Z,15.78
2019-05-28T22:06:10.411Z,15.67
2019-05-28T22:08:37.199Z,15.48
2019-05-28T22:11:04.027Z,15.30
2019-05-28T22:13:30.754Z,15.36
2019-05-28T22:15:58.059Z,15.18
2019-05-28T22:18:24.992Z,15.24
2019-05-28T22:20:51.667Z,15.29
2019-05-28T22:23:18.450Z,15.17
2019-05-28T22:25:45.159Z,15.16
2019-05-28T22:28:12.004Z,15.09
2019-05-28T22:30:38.728Z,15.10
2019-05-28T22:33:05.392Z,15.03
2019-05-28T22:35:32.250Z,15.27
2019-05-28T22:37:59.228Z,15.17
2019-05-28T22:40:26.383Z,15.25
2019-05-28T22:42:53.153Z,15.08
2019-05-28T22:45:20.127Z,14.97
2019-05-28T22:47:46.821Z,15.01
2019-05-28T22:50:22.553Z,14.94
2019-05-28T22:52:44.419Z,15.03
2019-05-28T22:55:11.575Z,14.85
2019-05-28T22:57:38.252Z,15.02
2019-05-28T23:00:06.718Z,14.86
2019-05-28T23:02:33.709Z,14.82
2019-05-28T23:05:01.037Z,14.86
2019-05-28T23:07:27.916Z,14.82
2019-05-28T23:09:54.637Z,14.76
2019-05-28T23:12:21.672Z,14.76
2019-05-28T23:14:48.737Z,14.85
2019-05-28T23:17:15.445Z,14.91
2019-05-28T23:19:42.146Z,14.91
2019-05-28T23:22:09.087Z,14.86
2019-05-28T23:24:35.822Z,14.72
2019-05-28T23:27:03.535Z,14.75
2019-05-28T23:29:30.542Z,14.69
2019-05-28T23:31:57.286Z,14.59
2019-05-28T23:34:23.928Z,14.51
2019-05-28T23:36:50.606Z,14.36
2019-05-28T23:39:17.273Z,14.50
2019-05-28T23:41:44.017Z,14.48
2019-05-28T23:44:11.654Z,14.41
2019-05-28T23:46:38.565Z,14.50
2019-05-28T23:49:06.092Z,14.56
2019-05-28T23:51:33.023Z,14.55
2019-05-28T23:53:59.716Z,14.42
2019-05-28T23:56:26.494Z,14.38
2019-05-28T23:58:53.280Z,14.41
